Time;durP1;ratioP1;P1;durP2;ratioP2;P2;SDS_P1;SDS_P2;PMS_P1;PMS_P2;Temp;Humidity;BMP_temperature;BMP_pressure;BME280_temperature;BME280_humidity;BME280_pressure;Samples;Min_cycle;Max_cycle;Signal;HPM_P1;HPM_P2
2021/04/20 00:03:38;;;;;;;10.17;9.27;;;12.30;38.40;;;;;;10335097;28;20599;-73
2021/04/20 00:08:41;;;;;;;11.60;10.50;;;12.20;38.00;;;;;;10347794;28;20603;-71
2021/04/20 00:13:45;;;;;;;10.70;9.33;;;12.20;37.90;;;;;;10341485;28;20305;-71
2021/04/20 00:18:47;;;;;;;9.60;8.80;;;12.10;38.10;;;;;;10340189;28;20330;-71
2021/04/20 00:23:49;;;;;;;11.10;10.10;;;12.10;38.00;;;;;;10351108;28;20222;-71
2021/04/20 00:28:52;;;;;;;11.37;10.37;;;12.00;38.10;;;;;;10346277;28;20226;-71
2021/04/20 00:33:54;;;;;;;11.87;10.83;;;12.00;38.40;;;;;;10329378;28;20722;-71
2021/04/20 00:38:57;;;;;;;13.00;11.77;;;12.00;38.20;;;;;;10325654;28;20314;-74
2021/04/20 00:44:00;;;;;;;12.83;11.63;;;11.90;38.30;;;;;;10346809;28;20298;-74
2021/04/20 00:49:03;;;;;;;12.90;11.63;;;11.90;38.60;;;;;;10341528;28;20269;-74
2021/04/20 00:54:06;;;;;;;12.03;10.83;;;11.80;38.50;;;;;;10311473;28;20219;-74
2021/04/20 00:59:09;;;;;;;12.57;11.43;;;11.80;38.70;;;;;;10331976;28;20238;-74
2021/04/20 01:04:12;;;;;;;12.33;11.03;;;11.80;38.90;;;;;;10338068;28;20306;-71
2021/04/20 01:09:16;;;;;;;12.40;11.20;;;11.80;38.80;;;;;;10339642;28;20235;-71
2021/04/20 01:14:20;;;;;;;11.60;10.50;;;11.80;38.90;;;;;;10320599;28;20309;-71
2021/04/20 01:19:26;;;;;;;11.57;10.57;;;11.70;39.20;;;;;;10323679;28;20313;-71
2021/04/20 01:24:31;;;;;;;12.60;11.40;;;11.60;39.70;;;;;;10339612;28;20306;-74
2021/04/20 01:29:34;;;;;;;12.53;11.37;;;11.60;39.30;;;;;;10330432;28;20321;-72
2021/04/20 01:34:36;;;;;;;12.57;11.27;;;11.60;39.00;;;;;;10329827;28;20715;-73
2021/04/20 01:39:40;;;;;;;13.77;12.37;;;11.60;39.00;;;;;;10323504;28;20305;-73
2021/04/20 01:44:42;;;;;;;12.93;11.73;;;11.60;39.40;;;;;;10328225;28;20713;-73
2021/04/20 01:49:44;;;;;;;14.67;13.07;;;11.60;39.30;;;;;;10332298;28;20317;-73
2021/04/20 01:54:48;;;;;;;13.87;12.57;;;11.60;39.30;;;;;;10335884;28;20663;-73
2021/04/20 01:59:50;;;;;;;13.90;12.50;;;11.60;39.60;;;;;;10334492;28;20257;-73
2021/04/20 02:04:53;;;;;;;13.57;12.30;;;11.60;39.50;;;;;;10342170;28;20654;-72
2021/04/20 02:09:56;;;;;;;14.70;13.30;;;11.60;39.50;;;;;;10324316;28;20313;-72
2021/04/20 02:14:59;;;;;;;14.53;13.23;;;11.60;39.70;;;;;;10344403;28;20227;-73
2021/04/20 02:20:02;;;;;;;14.73;13.33;;;11.50;39.40;;;;;;10341317;28;20219;-72
2021/04/20 02:25:07;;;;;;;14.83;13.33;;;11.50;39.50;;;;;;10332601;28;20314;-73
2021/04/20 02:30:12;;;;;;;15.43;13.83;;;11.40;40.00;;;;;;10332171;28;21062;-73
2021/04/20 02:35:15;;;;;;;15.40;13.80;;;11.40;39.60;;;;;;10335941;28;20330;-71
2021/04/20 02:40:20;;;;;;;15.33;13.90;;;11.30;39.60;;;;;;10354006;28;20313;-71
2021/04/20 02:45:24;;;;;;;16.20;14.70;;;11.20;39.90;;;;;;10340150;28;20665;-71
2021/04/20 02:50:28;;;;;;;14.93;13.43;;;11.20;40.10;;;;;;10356260;28;20230;-71
2021/04/20 02:55:31;;;;;;;14.67;13.27;;;11.10;40.20;;;;;;10340546;28;20218;-71
2021/04/20 03:00:34;;;;;;;15.77;14.27;;;11.10;40.20;;;;;;10346626;28;20366;-71
2021/04/20 03:05:36;;;;;;;16.23;14.60;;;11.10;40.00;;;;;;10391083;22;20225;-87
2021/04/20 03:10:45;;;;;;;14.73;13.33;;;11.10;40.00;;;;;;10467616;28;20256;-86
2021/04/20 03:15:50;;;;;;;15.33;13.83;;;11.10;40.90;;;;;;10429291;28;20317;-87
2021/04/20 03:20:52;;;;;;;13.60;12.23;;;11.10;40.20;;;;;;10408838;28;20311;-87
2021/04/20 03:26:04;;;;;;;14.57;13.27;;;11.20;40.00;;;;;;10394191;28;20222;-87
2021/04/20 03:31:06;;;;;;;13.23;11.63;;;11.20;41.00;;;;;;10407917;28;20230;-88
2021/04/20 03:36:14;;;;;;;16.10;14.67;;;11.30;40.10;;;;;;10428839;28;20290;-87
2021/04/20 03:41:35;;;;;;;14.00;12.60;;;11.30;41.10;;;;;;10422620;28;20230;-87
2021/04/20 03:46:42;;;;;;;16.27;14.70;;;11.30;41.10;;;;;;10414458;28;20248;-86
2021/04/20 03:51:47;;;;;;;17.13;15.43;;;11.30;40.40;;;;;;10408400;28;20229;-87
2021/04/20 03:56:57;;;;;;;15.83;14.33;;;11.30;40.40;;;;;;10439180;28;20268;-87
2021/04/20 04:02:00;;;;;;;16.33;14.63;;;11.30;40.50;;;;;;10419928;28;20317;-87
2021/04/20 04:07:04;;;;;;;16.00;14.50;;;11.30;40.30;;;;;;10412121;28;20697;-87
2021/04/20 04:12:22;;;;;;;16.43;14.83;;;11.30;40.30;;;;;;10425363;28;20247;-87
2021/04/20 04:17:27;;;;;;;16.50;14.90;;;11.30;41.10;;;;;;10426316;28;20221;-86
2021/04/20 04:22:34;;;;;;;16.73;15.13;;;11.30;41.00;;;;;;10418534;28;20692;-87
2021/04/20 04:27:40;;;;;;;16.03;14.47;;;11.30;41.00;;;;;;10432343;28;20252;-86
2021/04/20 04:32:44;;;;;;;17.80;15.77;;;11.30;41.00;;;;;;10426395;28;20366;-86
2021/04/20 04:37:49;;;;;;;17.67;15.83;;;11.30;40.60;;;;;;10413414;28;20224;-86
2021/04/20 04:42:52;;;;;;;17.37;15.77;;;11.30;40.20;;;;;;10412594;28;20291;-87
2021/04/20 04:47:59;;;;;;;16.07;14.50;;;11.30;40.50;;;;;;10407157;28;20248;-86
2021/04/20 04:53:02;;;;;;;16.93;15.33;;;11.20;41.00;;;;;;10424459;28;20226;-87
2021/04/20 04:58:09;;;;;;;16.20;14.60;;;11.20;40.50;;;;;;10424059;28;20243;-87
2021/04/20 05:03:12;;;;;;;18.47;16.70;;;11.20;41.00;;;;;;10413475;28;20279;-87
2021/04/20 05:08:15;;;;;;;17.90;16.10;;;11.20;40.20;;;;;;10407663;28;20284;-87
2021/04/20 05:13:19;;;;;;;19.13;17.23;;;11.20;41.20;;;;;;10411572;28;20248;-88
2021/04/20 05:18:24;;;;;;;18.90;17.10;;;11.10;40.40;;;;;;10409140;28;20317;-87
2021/04/20 05:23:26;;;;;;;18.73;16.83;;;11.10;40.20;;;;;;10410131;28;20642;-88
2021/04/20 05:28:30;;;;;;;18.93;17.03;;;11.00;40.40;;;;;;10406305;28;20279;-88
2021/04/20 05:33:32;;;;;;;19.27;17.43;;;10.90;40.70;;;;;;10403482;28;20420;-88
2021/04/20 05:38:34;;;;;;;18.93;17.17;;;10.90;40.70;;;;;;10420023;28;20779;-88
2021/04/20 05:43:38;;;;;;;18.47;16.67;;;10.90;40.70;;;;;;10415756;28;20224;-87
2021/04/20 05:48:43;;;;;;;19.07;17.27;;;10.90;40.70;;;;;;10426502;28;20225;-88
2021/04/20 05:53:47;;;;;;;20.80;18.67;;;11.00;40.80;;;;;;10422241;28;20597;-87
2021/04/20 05:58:55;;;;;;;19.43;17.63;;;11.10;40.90;;;;;;10422234;28;20305;-87
2021/04/20 06:03:58;;;;;;;16.60;15.03;;;11.10;41.50;;;;;;10413546;28;20229;-87
2021/04/20 06:09:05;;;;;;;21.40;19.10;;;11.20;41.00;;;;;;10428294;28;20760;-87
2021/04/20 06:14:08;;;;;;;20.33;18.33;;;11.30;41.80;;;;;;10398306;28;20254;-87
2021/04/20 06:19:11;;;;;;;19.40;17.40;;;11.30;41.10;;;;;;10417624;28;20248;-87
2021/04/20 06:24:17;;;;;;;21.07;18.97;;;11.30;41.10;;;;;;10427214;28;20225;-87
2021/04/20 06:29:23;;;;;;;23.03;20.63;;;11.40;41.20;;;;;;10423105;28;20325;-86
2021/04/20 06:34:27;;;;;;;22.83;20.63;;;11.40;41.20;;;;;;10398789;28;20261;-86
2021/04/20 06:39:34;;;;;;;24.73;22.33;;;11.40;41.20;;;;;;10434643;28;20226;-86
2021/04/20 06:44:48;;;;;;;24.97;22.50;;;11.50;41.30;;;;;;10418146;28;20226;-87
2021/04/20 06:49:54;;;;;;;26.30;23.73;;;11.50;41.80;;;;;;10420513;28;20259;-87
2021/04/20 06:55:06;;;;;;;26.50;23.83;;;11.60;41.70;;;;;;10420501;28;20229;-87
2021/04/20 07:00:14;;;;;;;26.27;23.77;;;11.60;42.30;;;;;;10424691;28;20260;-88
2021/04/20 07:05:26;;;;;;;27.57;24.90;;;11.70;41.80;;;;;;10415686;28;20236;-87
2021/04/20 07:10:33;;;;;;;27.73;24.93;;;11.70;42.00;;;;;;10415583;28;20296;-87
2021/04/20 07:15:39;;;;;;;29.07;26.07;;;11.70;41.70;;;;;;10415395;28;20656;-87
2021/04/20 07:20:50;;;;;;;28.90;25.83;;;11.80;41.70;;;;;;10444732;28;20311;-87
2021/04/20 07:26:12;;;;;;;28.33;25.27;;;11.90;42.20;;;;;;10456469;28;20641;-87
2021/04/20 07:31:24;;;;;;;28.63;25.87;;;11.90;42.50;;;;;;10442766;28;20229;-87
2021/04/20 07:36:41;;;;;;;29.73;26.87;;;12.00;42.40;;;;;;10438997;28;20232;-87
2021/04/20 07:41:52;;;;;;;30.37;27.27;;;12.10;42.40;;;;;;10455443;28;20275;-87
2021/04/20 07:46:58;;;;;;;29.07;26.17;;;12.20;42.60;;;;;;10454504;28;20255;-88
2021/04/20 07:52:05;;;;;;;30.00;27.00;;;12.30;42.40;;;;;;10446167;28;20249;-88
2021/04/20 07:57:19;;;;;;;29.73;26.83;;;12.40;42.10;;;;;;10478499;28;20271;-87
2021/04/20 08:02:31;;;;;;;31.10;28.00;;;12.50;42.10;;;;;;10454678;28;20279;-87
2021/04/20 08:07:42;;;;;;;29.43;26.47;;;12.50;42.10;;;;;;10442102;28;20220;-88
2021/04/20 08:12:54;;;;;;;29.43;26.43;;;12.60;42.20;;;;;;10480296;28;20233;-87
2021/04/20 08:18:04;;;;;;;29.87;26.83;;;12.80;42.40;;;;;;10440353;28;20221;-87
2021/04/20 08:23:14;;;;;;;28.37;25.57;;;12.90;42.50;;;;;;10482741;28;20223;-87
2021/04/20 08:28:21;;;;;;;27.23;24.53;;;13.00;42.50;;;;;;10485338;22;20225;-71
2021/04/20 08:33:28;;;;;;;29.03;26.03;;;13.20;42.70;;;;;;10479071;28;20273;-71
2021/04/20 08:38:48;;;;;;;29.50;26.47;;;13.30;42.30;;;;;;10442746;28;20240;-71
2021/04/20 08:44:01;;;;;;;26.57;23.73;;;13.40;42.10;;;;;;10443501;28;20220;-71
2021/04/20 08:49:27;;;;;;;26.97;24.30;;;13.40;42.70;;;;;;10430761;28;20307;-71
2021/04/20 08:55:11;;;;;;;28.70;25.87;;;13.50;41.90;;;;;;10438475;28;20229;-71
2021/04/20 09:00:17;;;;;;;25.50;22.90;;;13.70;42.00;;;;;;10342310;28;20235;-71
2021/04/20 09:05:25;;;;;;;27.47;24.70;;;13.80;41.10;;;;;;10421080;28;20287;-71
2021/04/20 09:10:31;;;;;;;26.27;23.57;;;13.80;41.10;;;;;;10432816;28;20780;-67
2021/04/20 09:15:37;;;;;;;28.80;25.90;;;13.90;41.40;;;;;;10437020;28;20316;-67
2021/04/20 09:20:46;;;;;;;27.90;25.10;;;14.00;40.90;;;;;;10463383;22;20236;-72
2021/04/20 09:25:54;;;;;;;28.20;25.30;;;14.10;40.70;;;;;;10471679;28;20240;-71
2021/04/20 09:31:11;;;;;;;28.53;25.73;;;14.10;41.00;;;;;;10475123;28;20230;-71
2021/04/20 09:36:16;;;;;;;26.47;23.70;;;14.20;41.00;;;;;;10482712;28;20228;-72
2021/04/20 09:41:30;;;;;;;24.77;22.27;;;14.30;41.20;;;;;;10480799;28;20267;-72
2021/04/20 09:46:35;;;;;;;26.80;24.00;;;14.40;40.70;;;;;;10475273;28;20248;-72
2021/04/20 09:51:47;;;;;;;26.97;24.17;;;14.50;40.10;;;;;;10464473;28;20719;-71
2021/04/20 09:56:53;;;;;;;26.40;23.90;;;14.60;40.20;;;;;;10474207;28;20786;-71
2021/04/20 10:02:32;;;;;;;24.73;22.33;;;14.60;39.90;;;;;;10470702;28;20220;-72
2021/04/20 10:07:58;;;;;;;24.37;21.93;;;14.70;40.00;;;;;;10465611;28;20240;-71
2021/04/20 10:13:13;;;;;;;24.20;21.70;;;14.90;40.70;;;;;;10470541;28;20650;-71
2021/04/20 10:18:21;;;;;;;25.63;23.00;;;15.10;40.10;;;;;;10468065;28;20240;-71
2021/04/20 10:23:33;;;;;;;24.70;22.20;;;15.30;39.30;;;;;;10472317;28;20247;-71
2021/04/20 10:28:44;;;;;;;22.63;20.43;;;15.50;39.00;;;;;;10467950;28;20232;-71
2021/04/20 10:33:50;;;;;;;22.67;20.37;;;15.60;39.10;;;;;;10478429;28;20260;-71
2021/04/20 10:38:56;;;;;;;21.67;19.57;;;15.70;38.90;;;;;;10480626;28;20727;-71
2021/04/20 10:43:59;;;;;;;20.83;18.63;;;15.90;38.80;;;;;;10479385;28;20224;-71
2021/04/20 10:49:01;;;;;;;22.40;20.23;;;16.10;38.90;;;;;;10474657;28;20235;-72
2021/04/20 10:54:08;;;;;;;22.10;19.90;;;16.30;38.50;;;;;;10484120;28;20308;-71
2021/04/20 10:59:23;;;;;;;21.27;19.20;;;16.50;37.50;;;;;;10488570;28;20622;-72
2021/04/20 11:04:32;;;;;;;20.83;18.83;;;16.60;38.10;;;;;;10483367;28;20235;-71
2021/04/20 11:09:35;;;;;;;19.97;18.07;;;16.80;37.00;;;;;;10491959;28;20228;-72
2021/04/20 11:14:39;;;;;;;19.20;17.37;;;16.90;37.40;;;;;;10483938;28;22103;-71
2021/04/20 11:19:46;;;;;;;19.67;17.57;;;17.00;36.90;;;;;;10486008;28;20225;-71
2021/04/20 11:24:58;;;;;;;17.60;15.87;;;17.00;35.20;;;;;;10484056;28;20239;-71
2021/04/20 11:30:09;;;;;;;18.30;16.50;;;17.10;34.30;;;;;;10478839;28;20691;-70
2021/04/20 11:35:14;;;;;;;23.63;21.23;;;17.10;35.00;;;;;;10483342;28;20330;-70
2021/04/20 11:40:28;;;;;;;22.87;20.67;;;17.10;35.60;;;;;;10482728;28;20767;-71
2021/04/20 11:45:37;;;;;;;21.77;19.67;;;17.20;35.00;;;;;;10479989;28;20310;-71
2021/04/20 11:50:43;;;;;;;21.30;19.17;;;17.20;35.80;;;;;;10484595;28;20235;-71
2021/04/20 11:55:48;;;;;;;19.27;17.47;;;17.20;34.10;;;;;;10486971;28;20302;-71
2021/04/20 12:00:58;;;;;;;21.23;19.13;;;17.20;34.30;;;;;;10484351;28;20234;-71
2021/04/20 12:06:01;;;;;;;22.87;20.57;;;17.10;34.60;;;;;;10479115;28;20221;-71
2021/04/20 12:11:08;;;;;;;22.43;20.23;;;17.10;34.80;;;;;;10484494;28;20299;-71
2021/04/20 12:16:11;;;;;;;20.20;18.30;;;17.00;33.90;;;;;;10481346;28;20686;-71
2021/04/20 12:21:21;;;;;;;21.83;19.73;;;16.90;34.60;;;;;;10480929;28;20316;-71
2021/04/20 12:26:26;;;;;;;19.33;17.33;;;16.80;33.70;;;;;;10486731;28;20243;-71
2021/04/20 12:31:30;;;;;;;23.77;21.50;;;16.80;33.70;;;;;;10478411;28;20224;-71
2021/04/20 12:36:38;;;;;;;20.13;18.20;;;16.80;34.10;;;;;;10480279;28;20652;-71
2021/04/20 12:41:42;;;;;;;18.23;16.53;;;16.70;34.00;;;;;;10477184;28;20664;-71
2021/04/20 12:46:45;;;;;;;18.17;16.37;;;16.80;34.80;;;;;;10480099;28;20240;-71
2021/04/20 12:51:48;;;;;;;17.50;15.80;;;17.00;35.40;;;;;;10472077;28;20278;-71
2021/04/20 12:56:59;;;;;;;17.83;16.13;;;17.20;35.20;;;;;;10488598;28;20703;-70
2021/04/20 13:02:02;;;;;;;16.67;15.07;;;17.40;34.20;;;;;;10473445;28;20312;-71
2021/04/20 13:07:06;;;;;;;16.07;14.57;;;17.50;33.90;;;;;;10484345;28;20610;-70
2021/04/20 13:12:12;;;;;;;14.57;13.23;;;17.60;33.70;;;;;;10477737;28;20311;-71
2021/04/20 13:17:17;;;;;;;14.97;13.47;;;17.70;32.30;;;;;;10483317;28;20256;-71
2021/04/20 13:22:25;;;;;;;14.87;13.47;;;17.70;33.10;;;;;;10475890;28;20320;-71
2021/04/20 13:27:29;;;;;;;14.20;12.90;;;17.70;31.60;;;;;;10478366;28;20228;-70
2021/04/20 13:32:33;;;;;;;14.80;13.33;;;17.70;31.30;;;;;;10479986;28;20228;-71
2021/04/20 13:37:38;;;;;;;13.97;12.70;;;17.70;32.50;;;;;;10486740;28;20216;-70
2021/04/20 13:42:45;;;;;;;14.40;13.03;;;17.80;32.80;;;;;;10480029;28;20281;-71
2021/04/20 13:47:47;;;;;;;13.07;11.90;;;17.90;31.90;;;;;;10483147;28;20216;-71
2021/04/20 13:53:06;;;;;;;15.63;14.23;;;17.90;32.40;;;;;;10475568;28;20212;-71
2021/04/20 13:58:13;;;;;;;17.73;16.13;;;18.10;32.70;;;;;;10476220;28;20212;-71
2021/04/20 14:03:20;;;;;;;19.40;17.53;;;18.20;32.70;;;;;;10478505;28;20263;-71
2021/04/20 14:08:24;;;;;;;20.33;18.23;;;18.30;32.70;;;;;;10474182;28;20232;-71
2021/04/20 14:13:34;;;;;;;18.20;16.30;;;18.30;33.00;;;;;;10482991;28;20256;-71
2021/04/20 14:18:36;;;;;;;17.83;16.13;;;18.30;32.80;;;;;;10478972;28;20231;-72
2021/04/20 14:23:43;;;;;;;14.73;13.43;;;18.40;32.50;;;;;;10478958;28;20319;-71
2021/04/20 14:28:48;;;;;;;10.10;9.20;;;18.30;32.00;;;;;;10488565;28;20324;-71
2021/04/20 14:33:56;;;;;;;10.20;9.30;;;18.20;30.80;;;;;;10483362;28;20598;-71
2021/04/20 14:39:05;;;;;;;10.77;9.87;;;17.80;30.20;;;;;;10489341;28;20274;-71
2021/04/20 14:44:12;;;;;;;9.50;8.70;;;17.20;30.60;;;;;;10481918;28;20319;-71
2021/04/20 14:49:27;;;;;;;12.10;10.90;;;16.60;30.50;;;;;;10483151;28;20232;-70
2021/04/20 14:54:32;;;;;;;13.30;12.00;;;16.30;32.10;;;;;;10486806;28;20251;-71
2021/04/20 14:59:38;;;;;;;12.93;11.73;;;16.10;33.00;;;;;;10485803;28;20256;-71
2021/04/20 15:04:50;;;;;;;14.03;12.63;;;15.90;32.90;;;;;;10483846;28;20489;-71
2021/04/20 15:09:54;;;;;;;12.33;11.23;;;15.80;33.50;;;;;;10480531;28;20256;-71
2021/04/20 15:15:04;;;;;;;13.27;12.07;;;15.70;33.20;;;;;;10483836;28;20254;-71
2021/04/20 15:20:08;;;;;;;13.03;11.83;;;15.50;33.50;;;;;;10479924;28;20311;-70
2021/04/20 15:25:15;;;;;;;13.73;12.53;;;15.40;34.10;;;;;;10487638;28;20722;-70
2021/04/20 15:30:23;;;;;;;13.10;11.90;;;15.40;34.50;;;;;;10482774;28;20701;-70
2021/04/20 15:35:29;;;;;;;11.63;10.63;;;15.40;35.70;;;;;;10481380;28;20224;-70
2021/04/20 15:40:34;;;;;;;13.00;11.80;;;15.50;34.90;;;;;;10483917;28;20270;-70
2021/04/20 15:45:41;;;;;;;13.03;11.80;;;15.60;35.10;;;;;;10486409;28;20216;-70
2021/04/20 15:50:49;;;;;;;12.97;11.77;;;15.60;35.10;;;;;;10476938;28;20817;-70
2021/04/20 15:55:55;;;;;;;12.03;10.83;;;15.70;35.10;;;;;;10488911;28;20647;-70
2021/04/20 16:01:01;;;;;;;14.97;13.47;;;15.70;34.80;;;;;;10477939;28;20312;-70
2021/04/20 16:06:05;;;;;;;12.23;11.23;;;15.60;35.50;;;;;;10478781;28;20226;-67
2021/04/20 16:11:08;;;;;;;12.27;10.50;;;15.60;34.70;;;;;;10482673;28;20300;-69
2021/04/20 16:16:17;;;;;;;11.63;10.63;;;15.50;33.90;;;;;;10481550;28;20825;-68
2021/04/20 16:21:21;;;;;;;12.93;11.73;;;15.50;33.90;;;;;;10480253;28;20243;-70
2021/04/20 16:26:27;;;;;;;12.30;11.13;;;15.40;34.80;;;;;;10477735;28;20231;-68
2021/04/20 16:31:35;;;;;;;12.70;11.50;;;15.30;34.60;;;;;;10478989;28;20312;-69
2021/04/20 16:36:51;;;;;;;11.87;10.77;;;15.40;35.00;;;;;;10482855;28;20240;-69
2021/04/20 16:42:01;;;;;;;13.40;12.27;;;15.40;35.20;;;;;;10473233;28;20605;-69
2021/04/20 16:47:15;;;;;;;13.20;11.87;;;15.50;35.40;;;;;;10479136;28;20307;-69
2021/04/20 16:52:25;;;;;;;11.80;10.73;;;15.60;35.70;;;;;;10470805;28;20608;-70
2021/04/20 16:58:04;;;;;;;13.20;11.90;;;15.60;35.70;;;;;;10477787;28;20228;-70
2021/04/20 17:03:22;;;;;;;12.33;11.33;;;15.80;36.00;;;;;;10471472;28;20220;-70
2021/04/20 17:08:33;;;;;;;12.80;11.70;;;15.80;35.80;;;;;;10477554;28;20260;-70
2021/04/20 17:13:40;;;;;;;15.20;13.80;;;15.90;36.00;;;;;;10475560;28;20656;-70
2021/04/20 17:19:08;;;;;;;13.40;12.20;;;16.00;36.10;;;;;;10485135;28;20303;-70
2021/04/20 17:24:26;;;;;;;14.03;12.83;;;15.90;36.00;;;;;;10483988;28;20263;-69
2021/04/20 17:29:37;;;;;;;16.43;14.93;;;16.00;36.00;;;;;;10478598;28;20717;-70
2021/04/20 17:34:47;;;;;;;15.93;14.43;;;16.00;35.40;;;;;;10477525;28;20273;-69
2021/04/20 17:39:59;;;;;;;16.00;14.60;;;15.90;35.30;;;;;;10401531;28;20311;-69
2021/04/20 17:45:11;;;;;;;13.27;12.07;;;15.90;35.50;;;;;;10427103;28;20230;-69
2021/04/20 17:50:27;;;;;;;13.03;11.93;;;15.90;35.60;;;;;;10460351;28;20810;-69
2021/04/20 17:55:44;;;;;;;14.83;13.43;;;16.00;36.20;;;;;;10459977;28;20311;-70
2021/04/20 18:00:54;;;;;;;13.43;12.17;;;16.00;35.70;;;;;;10469421;28;20307;-70
2021/04/20 18:06:13;;;;;;;14.67;13.27;;;15.90;35.50;;;;;;10479821;28;20255;-68
2021/04/20 18:11:21;;;;;;;15.70;14.30;;;15.80;35.50;;;;;;10479968;28;21023;-71
2021/04/20 18:16:31;;;;;;;16.70;15.20;;;15.80;35.90;;;;;;10483523;28;20306;-71
2021/04/20 18:21:39;;;;;;;18.73;16.97;;;15.70;36.10;;;;;;10486964;28;20236;-72
2021/04/20 18:27:11;;;;;;;15.60;14.20;;;15.70;36.30;;;;;;10482799;28;20759;-71
2021/04/20 18:32:24;;;;;;;12.97;11.77;;;15.60;36.00;;;;;;10483294;28;20231;-72
2021/04/20 18:37:38;;;;;;;15.73;14.23;;;15.60;36.10;;;;;;10479967;28;20274;-72
2021/04/20 18:42:43;;;;;;;13.83;12.57;;;15.60;36.10;;;;;;10483723;28;20903;-72
2021/04/20 18:48:01;;;;;;;16.10;14.60;;;15.50;35.60;;;;;;10477562;28;20239;-72
2021/04/20 18:53:18;;;;;;;19.00;17.10;;;15.50;35.60;;;;;;10476281;28;20299;-72
2021/04/20 18:58:37;;;;;;;15.60;14.20;;;15.40;35.50;;;;;;10471783;28;21212;-72
2021/04/20 19:03:41;;;;;;;14.17;13.07;;;15.40;35.50;;;;;;10487964;28;20775;-72
2021/04/20 19:08:54;;;;;;;14.20;12.90;;;15.30;35.30;;;;;;10471463;28;20227;-72
2021/04/20 19:14:17;;;;;;;13.23;12.07;;;15.20;35.50;;;;;;10459945;28;20216;-72
2021/04/20 19:19:27;;;;;;;16.03;14.57;;;15.20;35.50;;;;;;10460142;28;20220;-72
2021/04/20 19:24:40;;;;;;;15.87;14.37;;;15.10;35.50;;;;;;10466003;28;20230;-71
2021/04/20 19:29:54;;;;;;;19.27;17.27;;;15.00;35.60;;;;;;10460992;28;20315;-72
2021/04/20 19:35:16;;;;;;;17.77;15.97;;;14.80;35.30;;;;;;10467983;28;20224;-72
2021/04/20 19:40:33;;;;;;;13.83;12.57;;;14.60;35.50;;;;;;10466646;28;21169;-72
2021/04/20 19:45:49;;;;;;;15.27;13.87;;;14.50;35.70;;;;;;10472663;28;20307;-72
2021/04/20 19:51:06;;;;;;;17.93;16.27;;;14.40;35.60;;;;;;10462270;28;20224;-72
2021/04/20 19:56:12;;;;;;;26.50;24.20;;;14.40;35.60;;;;;;10465939;28;20278;-71
2021/04/20 20:01:15;;;;;;;17.60;16.00;;;14.30;35.40;;;;;;10469992;28;20769;-72
2021/04/20 20:06:19;;;;;;;19.67;17.90;;;14.10;34.90;;;;;;10464608;28;20485;-72
2021/04/20 20:11:27;;;;;;;18.77;17.07;;;13.90;35.50;;;;;;10463536;28;20240;-71
2021/04/20 20:16:31;;;;;;;17.50;15.90;;;13.70;35.50;;;;;;10464692;28;20224;-72
2021/04/20 20:21:34;;;;;;;17.50;15.90;;;13.60;35.40;;;;;;10470324;28;20239;-72
2021/04/20 20:26:40;;;;;;;14.40;13.20;;;13.40;35.40;;;;;;10470963;28;20235;-72
2021/04/20 20:31:47;;;;;;;14.07;12.77;;;13.30;35.80;;;;;;10470933;28;20324;-72
2021/04/20 20:36:50;;;;;;;16.20;14.60;;;13.20;35.90;;;;;;10475439;28;20248;-71
2021/04/20 20:41:57;;;;;;;16.37;14.87;;;13.10;35.80;;;;;;10475808;28;20246;-72
2021/04/20 20:47:01;;;;;;;11.67;10.53;;;13.00;36.30;;;;;;10477082;28;20228;-71
2021/04/20 20:52:06;;;;;;;12.57;11.37;;;13.00;35.90;;;;;;10466561;28;20317;-72
2021/04/20 20:57:28;;;;;;;12.10;11.00;;;12.90;35.90;;;;;;10471473;28;20228;-71
2021/04/20 21:02:32;;;;;;;12.30;11.20;;;12.80;36.10;;;;;;10474032;28;20315;-72
2021/04/20 21:07:36;;;;;;;11.43;10.33;;;12.80;35.80;;;;;;10474462;28;20244;-71
2021/04/20 21:12:44;;;;;;;12.37;11.27;;;12.70;35.80;;;;;;10465837;28;20346;-71
2021/04/20 21:17:54;;;;;;;13.70;12.30;;;12.70;36.10;;;;;;10475093;28;20736;-72
2021/04/20 21:22:59;;;;;;;12.13;10.93;;;12.70;36.10;;;;;;10471436;28;20310;-71
2021/04/20 21:28:04;;;;;;;12.77;11.57;;;12.60;35.90;;;;;;10469411;28;20835;-72
2021/04/20 21:33:07;;;;;;;13.80;12.43;;;12.60;36.00;;;;;;10472745;28;20791;-70
2021/04/20 21:38:12;;;;;;;13.87;12.60;;;12.60;35.80;;;;;;10472472;28;20621;-71
2021/04/20 21:43:17;;;;;;;14.23;12.83;;;12.50;35.80;;;;;;10471774;28;20228;-71
2021/04/20 21:48:26;;;;;;;12.40;11.23;;;12.40;35.60;;;;;;10468642;28;20294;-72
2021/04/20 21:53:33;;;;;;;13.40;12.20;;;12.30;35.70;;;;;;10464846;28;20312;-72
2021/04/20 21:58:43;;;;;;;12.00;10.93;;;12.20;35.80;;;;;;10475534;28;20231;-72
2021/04/20 22:03:48;;;;;;;13.07;11.77;;;12.10;35.90;;;;;;10475704;28;20315;-72
2021/04/20 22:09:02;;;;;;;13.00;11.70;;;12.00;35.60;;;;;;10475743;28;20227;-71
2021/04/20 22:14:07;;;;;;;11.23;10.20;;;12.00;35.80;;;;;;10469449;28;20684;-71
2021/04/20 22:19:11;;;;;;;11.13;10.17;;;11.90;35.60;;;;;;10470677;28;20251;-71
2021/04/20 22:24:15;;;;;;;11.63;10.53;;;11.80;35.50;;;;;;10478406;28;20251;-71
2021/04/20 22:29:19;;;;;;;10.30;9.40;;;11.70;35.60;;;;;;10472867;28;20315;-71
2021/04/20 22:34:24;;;;;;;11.17;10.17;;;11.50;35.60;;;;;;10469418;28;20255;-71
2021/04/20 22:39:28;;;;;;;12.23;11.13;;;11.50;35.80;;;;;;10471173;28;20252;-71
2021/04/20 22:44:40;;;;;;;12.17;11.07;;;11.40;35.70;;;;;;10468654;28;20228;-71
2021/04/20 22:49:47;;;;;;;12.43;11.23;;;11.30;36.00;;;;;;10470128;28;20252;-71
2021/04/20 22:54:51;;;;;;;12.60;11.43;;;11.20;36.10;;;;;;10474524;28;20232;-71
2021/04/20 22:59:57;;;;;;;10.23;9.23;;;11.10;36.00;;;;;;10480810;28;20228;-71
2021/04/20 23:05:01;;;;;;;10.30;9.40;;;11.10;36.10;;;;;;10481680;28;20311;-71
2021/04/20 23:10:07;;;;;;;11.33;10.33;;;11.00;35.90;;;;;;10470672;28;20282;-72
2021/04/20 23:15:15;;;;;;;11.13;10.07;;;11.00;36.10;;;;;;10476022;28;20671;-72
2021/04/20 23:20:18;;;;;;;11.03;10.03;;;11.00;36.10;;;;;;10473897;28;20248;-72
2021/04/20 23:25:26;;;;;;;11.07;10.07;;;11.00;35.90;;;;;;10479125;28;20228;-71
2021/04/20 23:30:37;;;;;;;12.27;11.17;;;10.90;36.10;;;;;;10473587;28;20228;-71
2021/04/20 23:35:40;;;;;;;11.53;10.33;;;10.90;36.20;;;;;;10473598;28;20262;-71
2021/04/20 23:40:45;;;;;;;10.50;9.50;;;10.90;35.60;;;;;;10479193;28;20224;-71
2021/04/20 23:45:49;;;;;;;11.50;10.47;;;10.80;35.40;;;;;;10481278;28;20315;-71
2021/04/20 23:50:52;;;;;;;13.30;11.07;;;10.70;35.50;;;;;;10477117;28;20256;-71
2021/04/20 23:55:55;;;;;;;10.70;9.80;;;10.60;35.50;;;;;;10470385;28;20762;-71
